Time,TemperatureF,DewpointF,PressureIn,WindDirection,WindDirectionDegrees,WindSpeedMPH,WindSpeedGustMPH,Humidity,HourlyPrecipIn,Conditions,Clouds,dailyrainin,SoftwareType,DateUTC
2013-09-15 00:02:00,54.6,48.6,29.83,NNW,347,0.0,0.0,80,0.00,CLR,,0.00,WeatherDisplay:10.37,2013-09-15 08:02:00,
2013-09-15 00:07:00,54.6,48.9,29.83,NNW,347,0.0,0.0,81,0.00,CLR,,0.00,WeatherDisplay:10.37,2013-09-15 08:07:00,
2013-09-15 00:12:00,54.5,48.8,29.83,NNW,347,0.0,0.0,81,0.00,CLR,,0.00,WeatherDisplay:10.37,2013-09-15 08:12:00,
2013-09-15 00:17:00,54.4,48.7,29.83,NNW,347,0.0,0.0,81,0.00,CLR,,0.00,WeatherDisplay:10.37,2013-09-15 08:17:00,
2013-09-15 00:22:00,54.2,48.5,29.83,NNW,347,0.0,0.0,81,0.00,CLR,,0.00,WeatherDisplay:10.37,2013-09-15 08:22:00,
2013-09-15 00:27:00,54.1,48.7,29.83,NNW,347,0.0,0.0,82,0.00,CLR,,0.00,WeatherDisplay:10.37,2013-09-15 08:27:00,
2013-09-15 00:32:00,54.1,48.7,29.83,NNW,347,0.0,0.0,82,0.00,CLR,,0.00,WeatherDisplay:10.37,2013-09-15 08:32:00,
2013-09-15 00:37:00,53.9,48.5,29.83,NNW,347,0.0,0.0,82,0.00,CLR,,0.00,WeatherDisplay:10.37,2013-09-15 08:37:00,
2013-09-15 00:42:00,53.7,48.7,29.83,NNW,347,0.0,0.0,83,0.00,CLR,,0.00,WeatherDisplay:10.37,2013-09-15 08:42:00,
2013-09-15 00:47:00,53.3,47.9,29.83,NNW,347,0.0,0.0,82,0.00,CLR,,0.00,WeatherDisplay:10.37,2013-09-15 08:47:00,
2013-09-15 00:52:00,53.2,48.5,29.83,NNW,347,0.0,0.0,84,0.00,CLR,,0.00,WeatherDisplay:10.37,2013-09-15 08:52:00,
2013-09-15 00:57:00,52.9,48.5,29.83,NNW,347,0.0,0.0,85,0.00,CLR,,0.00,WeatherDisplay:10.37,2013-09-15 08:57:00,
2013-09-15 01:02:00,52.4,48.3,29.83,NNW,347,0.0,0.0,86,0.00,CLR,,0.00,WeatherDisplay:10.37,2013-09-15 09:02:00,
2013-09-15 01:07:00,52.1,48.3,29.83,NNW,347,0.0,0.0,87,0.00,CLR,,0.00,WeatherDisplay:10.37,2013-09-15 09:07:00,
2013-09-15 01:12:00,52.1,48.0,29.83,NNW,348,0.0,0.0,86,0.00,CLR,,0.00,WeatherDisplay:10.37,2013-09-15 09:12:00,
2013-09-15 01:17:00,52.3,48.2,29.83,NNW,348,0.0,0.0,86,0.00,CLR,,0.00,WeatherDisplay:10.37,2013-09-15 09:17:00,
2013-09-15 01:22:00,52.3,48.2,29.83,NNW,348,0.0,0.0,86,0.00,CLR,,0.00,WeatherDisplay:10.37,2013-09-15 09:22:00,
2013-09-15 01:27:00,52.4,48.0,29.83,NNW,348,0.0,0.0,85,0.00,CLR,,0.00,WeatherDisplay:10.37,2013-09-15 09:27:00,
2013-09-15 01:32:00,52.4,48.3,29.83,NNW,348,0.0,0.0,86,0.00,CLR,,0.00,WeatherDisplay:10.37,2013-09-15 09:32:00,
2013-09-15 01:37:00,52.3,48.2,29.83,NNW,348,0.0,0.0,86,0.00,CLR,,0.00,WeatherDisplay:10.37,2013-09-15 09:37:00,
2013-09-15 01:42:00,52.1,48.0,29.83,NNW,348,0.0,0.0,86,0.00,CLR,,0.00,WeatherDisplay:10.37,2013-09-15 09:42:00,
2013-09-15 01:47:00,51.9,48.2,29.82,NNW,348,0.0,0.0,87,0.00,CLR,,0.00,WeatherDisplay:10.37,2013-09-15 09:47:00,
2013-09-15 01:52:00,51.8,48.1,29.82,NNW,348,0.0,0.0,87,0.00,CLR,,0.00,WeatherDisplay:10.37,2013-09-15 09:52:00,
2013-09-15 01:57:00,51.5,47.8,29.82,NNW,348,0.0,0.0,87,0.00,CLR,,0.00,WeatherDisplay:10.37,2013-09-15 09:57:00,
2013-09-15 02:02:00,51.4,47.7,29.82,NNW,348,0.0,0.0,87,0.00,CLR,,0.00,WeatherDisplay:10.37,2013-09-15 10:02:00,
2013-09-15 02:07:00,51.2,47.5,29.82,NNW,348,0.0,0.0,87,0.00,CLR,,0.00,WeatherDisplay:10.37,2013-09-15 10:07:00,
2013-09-15 02:12:00,50.8,47.4,29.82,NNW,348,0.0,0.0,88,0.00,CLR,,0.00,WeatherDisplay:10.37,2013-09-15 10:12:00,
2013-09-15 02:17:00,50.5,47.1,29.82,NNW,348,0.0,0.0,88,0.00,CLR,,0.00,WeatherDisplay:10.37,2013-09-15 10:17:00,
2013-09-15 02:22:00,50.3,46.9,29.81,NNW,348,0.0,0.0,88,0.00,CLR,,0.00,WeatherDisplay:10.37,2013-09-15 10:22:00,
2013-09-15 02:27:00,50.2,46.8,29.81,NNW,348,0.0,0.0,88,0.00,CLR,,0.00,WeatherDisplay:10.37,2013-09-15 10:27:00,
2013-09-15 02:32:00,50.2,47.1,29.81,NNW,348,0.0,0.0,89,0.00,CLR,,0.00,WeatherDisplay:10.37,2013-09-15 10:32:00,
2013-09-15 02:37:00,50.2,47.1,29.81,NNW,348,0.0,0.0,89,0.00,CLR,,0.00,WeatherDisplay:10.37,2013-09-15 10:37:00,
2013-09-15 02:42:00,50.3,47.2,29.82,NNW,348,0.0,0.0,89,0.00,CLR,,0.00,WeatherDisplay:10.37,2013-09-15 10:42:00,
2013-09-15 02:47:00,50.5,47.4,29.82,NNW,348,0.0,0.0,89,0.00,CLR,,0.00,WeatherDisplay:10.37,2013-09-15 10:47:00,
2013-09-15 02:52:00,50.8,47.4,29.82,NNW,348,0.0,0.0,88,0.00,CLR,,0.00,WeatherDisplay:10.37,2013-09-15 10:52:00,
2013-09-15 02:57:00,50.9,47.5,29.82,NNW,348,0.0,0.0,88,0.00,CLR,,0.00,WeatherDisplay:10.37,2013-09-15 10:57:00,
2013-09-15 03:02:00,50.9,47.2,29.81,NNW,348,0.0,0.0,87,0.00,CLR,,0.00,WeatherDisplay:10.37,2013-09-15 11:02:00,
2013-09-15 03:07:00,50.9,47.5,29.81,NNW,348,0.0,0.0,88,0.00,CLR,,0.00,WeatherDisplay:10.37,2013-09-15 11:07:00,
2013-09-15 03:12:00,50.8,47.4,29.81,North,349,0.0,0.0,88,0.00,CLR,,0.00,WeatherDisplay:10.37,2013-09-15 11:12:00,
2013-09-15 03:17:00,50.6,47.2,29.81,North,349,0.0,0.0,88,0.00,CLR,,0.00,WeatherDisplay:10.37,2013-09-15 11:17:00,
2013-09-15 03:22:00,50.4,47.3,29.81,NNW,348,0.0,0.0,89,0.00,CLR,,0.00,WeatherDisplay:10.37,2013-09-15 11:22:00,
2013-09-15 03:27:00,50.2,47.1,29.81,NNW,348,0.0,0.0,89,0.00,CLR,,0.00,WeatherDisplay:10.37,2013-09-15 11:27:00,
2013-09-15 03:32:00,50.2,47.1,29.81,NNW,348,0.0,0.0,89,0.00,CLR,,0.00,WeatherDisplay:10.37,2013-09-15 11:32:00,
2013-09-15 03:37:00,50.3,47.2,29.81,NNW,348,0.0,0.0,89,0.00,CLR,,0.00,WeatherDisplay:10.37,2013-09-15 11:37:00,
2013-09-15 03:42:00,50.5,47.1,29.81,NNW,348,0.0,0.0,88,0.00,CLR,,0.00,WeatherDisplay:10.37,2013-09-15 11:42:00,
2013-09-15 03:47:00,50.4,47.0,29.80,NNW,348,0.0,0.0,88,0.00,CLR,,0.00,WeatherDisplay:10.37,2013-09-15 11:47:00,
2013-09-15 03:52:00,50.3,46.9,29.80,North,349,0.0,0.0,88,0.00,CLR,,0.00,WeatherDisplay:10.37,2013-09-15 11:52:00,
2013-09-15 03:57:00,50.4,48.2,29.80,North,349,0.0,0.0,92,0.00,CLR,,0.00,WeatherDisplay:10.37,2013-09-15 11:57:00,
2013-09-15 04:02:00,50.5,47.1,29.80,NNW,347,0.0,0.0,88,0.00,CLR,,0.00,WeatherDisplay:10.37,2013-09-15 12:02:00,
2013-09-15 04:07:00,50.5,47.1,29.80,NNW,348,0.0,0.0,88,0.00,CLR,,0.00,WeatherDisplay:10.37,2013-09-15 12:07:00,
2013-09-15 04:12:00,50.4,47.0,29.80,NNW,348,0.0,0.0,88,0.00,CLR,,0.00,WeatherDisplay:10.37,2013-09-15 12:12:00,
2013-09-15 04:17:00,50.4,47.0,29.80,NNW,348,0.0,0.0,88,0.00,CLR,,0.00,WeatherDisplay:10.37,2013-09-15 12:17:00,
2013-09-15 04:22:00,50.2,46.8,29.80,NNW,348,0.0,0.0,88,0.00,CLR,,0.00,WeatherDisplay:10.37,2013-09-15 12:22:00,
2013-09-15 04:27:00,49.9,46.5,29.80,NNW,348,0.0,0.0,88,0.00,CLR,,0.00,WeatherDisplay:10.37,2013-09-15 12:27:00,
2013-09-15 04:32:00,49.8,46.4,29.80,NNW,348,0.0,0.0,88,0.00,CLR,,0.00,WeatherDisplay:10.37,2013-09-15 12:32:00,
2013-09-15 04:37:00,49.8,46.7,29.79,NNW,348,0.0,0.0,89,0.00,CLR,,0.00,WeatherDisplay:10.37,2013-09-15 12:37:00,
2013-09-15 04:42:00,49.7,46.6,29.79,NNW,348,0.0,0.0,89,0.00,CLR,,0.00,WeatherDisplay:10.37,2013-09-15 12:42:00,
2013-09-15 04:47:00,49.6,46.5,29.79,North,349,0.0,0.0,89,0.00,CLR,,0.00,WeatherDisplay:10.37,2013-09-15 12:47:00,
2013-09-15 04:52:00,49.8,46.7,29.79,North,349,0.0,0.0,89,0.00,CLR,,0.00,WeatherDisplay:10.37,2013-09-15 12:52:00,
2013-09-15 04:57:00,49.7,46.3,29.79,North,349,0.0,0.0,88,0.00,CLR,,0.00,WeatherDisplay:10.37,2013-09-15 12:57:00,
2013-09-15 05:02:00,49.6,46.2,29.79,North,349,0.0,0.0,88,0.00,CLR,,0.00,WeatherDisplay:10.37,2013-09-15 13:02:00,
2013-09-15 05:07:00,49.6,47.4,29.79,North,349,0.0,0.0,92,0.00,CLR,,0.00,WeatherDisplay:10.37,2013-09-15 13:07:00,
2013-09-15 05:12:00,49.7,46.6,29.78,NNW,348,0.0,0.0,89,0.00,CLR,,0.00,WeatherDisplay:10.37,2013-09-15 13:12:00,
2013-09-15 05:17:00,49.9,46.8,29.78,NNW,348,0.0,0.0,89,0.00,CLR,,0.00,WeatherDisplay:10.37,2013-09-15 13:17:00,
2013-09-15 05:22:00,50.3,46.9,29.78,NNW,348,0.0,0.0,88,0.00,CLR,,0.00,WeatherDisplay:10.37,2013-09-15 13:22:00,
2013-09-15 05:27:00,50.5,46.8,29.78,NNW,348,0.0,0.0,87,0.00,CLR,,0.00,WeatherDisplay:10.37,2013-09-15 13:27:00,
2013-09-15 05:32:00,50.4,46.7,29.78,NNW,348,0.0,0.0,87,0.00,CLR,,0.00,WeatherDisplay:10.37,2013-09-15 13:32:00,
2013-09-15 05:37:00,50.3,46.6,29.78,NNW,348,0.0,0.0,87,0.00,CLR,,0.00,WeatherDisplay:10.37,2013-09-15 13:37:00,
2013-09-15 05:42:00,50.5,46.8,29.78,NNW,347,0.0,0.0,87,0.00,CLR,,0.00,WeatherDisplay:10.37,2013-09-15 13:42:00,
2013-09-15 05:47:00,50.8,46.8,29.77,NNW,347,0.0,0.0,86,0.00,CLR,,0.00,WeatherDisplay:10.37,2013-09-15 13:47:00,
2013-09-15 05:52:00,51.0,46.6,29.78,NNW,347,0.0,0.0,85,0.00,CLR,,0.00,WeatherDisplay:10.37,2013-09-15 13:52:00,
2013-09-15 05:57:00,51.1,46.7,29.78,NNW,347,0.0,0.0,85,0.00,CLR,,0.00,WeatherDisplay:10.37,2013-09-15 13:57:00,
2013-09-15 06:02:00,51.0,46.6,29.78,NNW,347,0.0,0.0,85,0.00,CLR,,0.00,WeatherDisplay:10.37,2013-09-15 14:02:00,
2013-09-15 06:07:00,50.7,46.4,29.77,NNW,347,0.0,0.0,85,0.00,CLR,,0.00,WeatherDisplay:10.37,2013-09-15 14:07:00,
2013-09-15 06:12:00,50.4,46.4,29.77,NNW,347,0.0,0.0,86,0.00,CLR,,0.00,WeatherDisplay:10.37,2013-09-15 14:12:00,
2013-09-15 06:17:00,50.1,46.1,29.77,NNW,347,0.0,0.0,86,0.00,CLR,,0.00,WeatherDisplay:10.37,2013-09-15 14:17:00,
2013-09-15 06:22:00,49.9,45.9,29.77,NNW,347,0.0,0.0,86,0.00,CLR,,0.00,WeatherDisplay:10.37,2013-09-15 14:22:00,
2013-09-15 06:27:00,49.7,45.7,29.77,NNW,347,0.0,0.0,86,0.00,CLR,,0.00,WeatherDisplay:10.37,2013-09-15 14:27:00,
2013-09-15 06:32:00,49.6,45.6,29.77,NNW,347,0.0,0.0,86,0.00,CLR,,0.00,WeatherDisplay:10.37,2013-09-15 14:32:00,
2013-09-15 06:37:00,49.9,45.9,29.77,NNW,347,0.0,0.0,86,0.00,CLR,,0.00,WeatherDisplay:10.37,2013-09-15 14:37:00,
2013-09-15 06:42:00,50.2,45.9,29.77,NNW,347,0.0,0.0,85,0.00,CLR,,0.00,WeatherDisplay:10.37,2013-09-15 14:42:00,
2013-09-15 06:47:00,50.3,45.6,29.77,NNW,346,0.0,0.0,84,0.00,CLR,,0.00,WeatherDisplay:10.37,2013-09-15 14:47:00,
2013-09-15 06:52:00,50.5,45.5,29.77,NNW,347,0.0,0.0,83,0.00,CLR,,0.00,WeatherDisplay:10.37,2013-09-15 14:52:00,
2013-09-15 06:57:00,50.5,45.5,29.76,NNW,347,0.0,0.0,83,0.00,CLR,,0.00,WeatherDisplay:10.37,2013-09-15 14:57:00,
2013-09-15 07:02:00,50.5,45.5,29.76,NNW,347,0.0,0.0,83,0.00,CLR,,0.00,WeatherDisplay:10.37,2013-09-15 15:02:00,
2013-09-15 07:07:00,50.3,45.3,29.76,NNW,347,0.0,0.0,83,0.00,CLR,,0.00,WeatherDisplay:10.37,2013-09-15 15:07:00,
2013-09-15 07:12:00,50.1,45.1,29.76,NNW,347,0.0,0.0,83,0.00,CLR,,0.00,WeatherDisplay:10.37,2013-09-15 15:12:00,
2013-09-15 07:17:00,50.0,45.0,29.75,NNW,347,0.0,0.0,83,0.00,CLR,,0.00,WeatherDisplay:10.37,2013-09-15 15:17:00,
2013-09-15 07:22:00,50.1,44.8,29.75,NNW,347,0.0,0.0,82,0.00,CLR,,0.00,WeatherDisplay:10.37,2013-09-15 15:22:00,
2013-09-15 07:27:00,50.2,44.9,29.75,NNW,347,0.0,0.0,82,0.00,CLR,,0.00,WeatherDisplay:10.37,2013-09-15 15:27:00,
2013-09-15 07:32:00,50.1,44.8,29.75,NNW,347,0.0,0.0,82,0.00,CLR,,0.00,WeatherDisplay:10.37,2013-09-15 15:32:00,
2013-09-15 07:37:00,50.0,44.7,29.75,NNW,347,0.0,0.0,82,0.00,CLR,,0.00,WeatherDisplay:10.37,2013-09-15 15:37:00,
2013-09-15 07:42:00,50.3,44.4,29.75,NNW,346,0.0,0.0,80,0.00,CLR,,0.00,WeatherDisplay:10.37,2013-09-15 15:42:00,
2013-09-15 07:47:00,50.9,44.3,29.75,NNW,347,0.0,0.0,78,0.00,CLR,,0.00,WeatherDisplay:10.37,2013-09-15 15:47:00,
2013-09-15 07:52:00,51.2,44.6,29.75,NNW,347,0.0,0.0,78,0.00,CLR,,0.00,WeatherDisplay:10.37,2013-09-15 15:52:00,
2013-09-15 07:57:00,51.2,44.2,29.75,NNW,347,0.0,0.0,77,0.00,CLR,,0.00,WeatherDisplay:10.37,2013-09-15 15:57:00,
2013-09-15 08:02:00,51.4,44.4,29.75,NNW,347,0.0,0.0,77,0.00,CLR,,0.00,WeatherDisplay:10.37,2013-09-15 16:02:00,
2013-09-15 08:07:00,51.0,44.4,29.75,NNW,345,0.0,0.0,78,0.00,CLR,,0.00,WeatherDisplay:10.37,2013-09-15 16:07:00,
2013-09-15 08:12:00,50.5,44.2,29.75,NNW,345,0.0,0.0,79,0.00,CLR,,0.00,WeatherDisplay:10.37,2013-09-15 16:12:00,
2013-09-15 08:17:00,50.1,43.8,29.76,NNW,345,0.0,0.0,79,0.00,CLR,,0.00,WeatherDisplay:10.37,2013-09-15 16:17:00,
2013-09-15 08:22:00,49.9,43.6,29.76,NNW,346,0.0,0.0,79,0.00,CLR,,0.00,WeatherDisplay:10.37,2013-09-15 16:22:00,
2013-09-15 08:27:00,50.0,43.7,29.76,NNW,346,0.0,0.0,79,0.00,CLR,,0.00,WeatherDisplay:10.37,2013-09-15 16:27:00,
2013-09-15 08:32:00,50.3,44.0,29.76,NNW,347,0.0,0.0,79,0.00,CLR,,0.00,WeatherDisplay:10.37,2013-09-15 16:32:00,
2013-09-15 08:37:00,50.7,43.8,29.76,NNW,347,0.0,0.0,77,0.00,CLR,,0.00,WeatherDisplay:10.37,2013-09-15 16:37:00,
2013-09-15 08:42:00,51.1,43.8,29.76,NNW,347,0.0,0.0,76,0.00,CLR,,0.00,WeatherDisplay:10.37,2013-09-15 16:42:00,
2013-09-15 08:47:00,51.6,43.9,29.75,NNW,347,0.0,0.0,75,0.00,CLR,,0.00,WeatherDisplay:10.37,2013-09-15 16:47:00,
2013-09-15 08:52:00,51.6,43.9,29.76,NNW,347,0.0,0.0,75,0.00,CLR,,0.00,WeatherDisplay:10.37,2013-09-15 16:52:00,
2013-09-15 08:57:00,51.5,43.8,29.76,NNW,346,0.0,0.0,75,0.00,CLR,,0.00,WeatherDisplay:10.37,2013-09-15 16:57:00,
2013-09-15 09:02:00,51.5,43.8,29.76,NNW,347,0.0,0.0,75,0.00,CLR,,0.00,WeatherDisplay:10.37,2013-09-15 17:02:00,
2013-09-15 09:07:00,51.7,44.0,29.76,NNW,346,0.0,0.0,75,0.00,CLR,,0.00,WeatherDisplay:10.37,2013-09-15 17:07:00,
2013-09-15 09:12:00,52.0,44.0,29.76,NNW,347,0.0,0.0,74,0.00,CLR,,0.00,WeatherDisplay:10.37,2013-09-15 17:12:00,
2013-09-15 09:17:00,52.1,44.1,29.75,NNW,347,0.0,0.0,74,0.00,CLR,,0.00,WeatherDisplay:10.37,2013-09-15 17:17:00,
2013-09-15 09:22:00,52.3,43.9,29.75,NNW,347,0.0,0.0,73,0.00,CLR,,0.00,WeatherDisplay:10.37,2013-09-15 17:22:00,
2013-09-15 09:27:00,52.8,44.4,29.76,NNW,345,0.0,0.0,73,0.00,CLR,,0.00,WeatherDisplay:10.37,2013-09-15 17:27:00,
2013-09-15 09:32:00,53.1,44.3,29.76,NNW,347,0.0,0.0,72,0.00,CLR,,0.00,WeatherDisplay:10.37,2013-09-15 17:32:00,
2013-09-15 09:37:00,53.5,44.3,29.75,NNW,347,0.0,0.0,71,0.00,CLR,,0.00,WeatherDisplay:10.37,2013-09-15 17:37:00,
2013-09-15 09:42:00,53.3,44.9,29.75,NNW,347,0.0,0.0,73,0.00,CLR,,0.00,WeatherDisplay:10.37,2013-09-15 17:42:00,
2013-09-15 09:47:00,53.4,44.6,29.76,NNW,345,0.0,0.0,72,0.00,CLR,,0.00,WeatherDisplay:10.37,2013-09-15 17:47:00,
2013-09-15 09:52:00,53.8,45.0,29.75,NNW,347,0.0,0.0,72,0.00,CLR,,0.00,WeatherDisplay:10.37,2013-09-15 17:52:00,
2013-09-15 09:57:00,54.2,45.0,29.75,NNW,347,0.0,0.0,71,0.00,CLR,,0.00,WeatherDisplay:10.37,2013-09-15 17:57:00,
2013-09-15 10:02:00,54.2,45.4,29.75,NNW,347,0.0,0.0,72,0.00,CLR,,0.00,WeatherDisplay:10.37,2013-09-15 18:02:00,
2013-09-15 10:07:00,54.3,45.1,29.75,NNW,347,0.0,0.0,71,0.00,CLR,,0.00,WeatherDisplay:10.37,2013-09-15 18:07:00,
2013-09-15 10:12:00,54.4,45.2,29.75,NNW,347,0.0,0.0,71,0.00,CLR,,0.00,WeatherDisplay:10.37,2013-09-15 18:12:00,
2013-09-15 10:17:00,54.5,45.3,29.75,NNW,346,0.0,0.0,71,0.00,CLR,,0.00,WeatherDisplay:10.37,2013-09-15 18:17:00,
2013-09-15 10:22:00,54.4,45.6,29.75,NNW,347,0.0,0.0,72,0.00,CLR,,0.00,WeatherDisplay:10.37,2013-09-15 18:22:00,
2013-09-15 10:27:00,54.6,45.4,29.75,NNW,346,0.0,0.0,71,0.00,CLR,,0.00,WeatherDisplay:10.37,2013-09-15 18:27:00,
2013-09-15 10:32:00,55.5,45.9,29.75,NNW,346,0.0,0.0,70,0.00,CLR,,0.00,WeatherDisplay:10.37,2013-09-15 18:32:00,
2013-09-15 10:37:00,56.6,46.2,29.74,NNW,346,0.0,0.0,68,0.00,CLR,,0.00,WeatherDisplay:10.37,2013-09-15 18:37:00,
2013-09-15 10:42:00,57.6,46.3,29.74,NNW,347,0.0,0.0,66,0.00,CLR,,0.00,WeatherDisplay:10.37,2013-09-15 18:42:00,
2013-09-15 10:47:00,57.7,46.4,29.75,NNW,347,0.0,0.0,66,0.00,CLR,,0.00,WeatherDisplay:10.37,2013-09-15 18:47:00,
2013-09-15 10:52:00,57.2,45.9,29.75,NNW,346,0.0,0.0,66,0.00,CLR,,0.00,WeatherDisplay:10.37,2013-09-15 18:52:00,
2013-09-15 10:57:00,56.4,45.2,29.75,NNW,347,0.0,0.0,66,0.00,CLR,,0.00,WeatherDisplay:10.37,2013-09-15 18:57:00,
2013-09-15 11:02:00,55.9,45.5,29.74,NNW,345,0.0,0.0,68,0.00,CLR,,0.00,WeatherDisplay:10.37,2013-09-15 19:02:00,
2013-09-15 11:07:00,56.0,44.8,29.75,NNW,347,0.0,0.0,66,0.00,CLR,,0.00,WeatherDisplay:10.37,2013-09-15 19:07:00,
2013-09-15 11:12:00,56.2,45.4,29.74,NNW,346,0.0,0.0,67,0.00,CLR,,0.00,WeatherDisplay:10.37,2013-09-15 19:12:00,
2013-09-15 11:17:00,56.4,45.6,29.75,NNW,345,0.0,0.0,67,0.00,CLR,,0.00,WeatherDisplay:10.37,2013-09-15 19:17:00,
2013-09-15 11:18:00,56.6,45.4,29.75,NNW,345,0.0,0.0,66,0.00,CLR,,0.00,WeatherDisplay:10.37,2013-09-15 19:18:00,
2013-09-15 11:23:00,56.9,45.7,29.74,NNW,346,0.0,0.0,66,0.00,CLR,,0.00,WeatherDisplay:10.37,2013-09-15 19:23:00,
2013-09-15 11:28:00,57.1,45.4,29.74,NNW,344,0.0,0.0,65,0.00,CLR,,0.00,WeatherDisplay:10.37,2013-09-15 19:28:00,
2013-09-15 11:33:00,57.9,45.8,29.74,NNW,344,0.0,0.0,64,0.00,CLR,,0.00,WeatherDisplay:10.37,2013-09-15 19:33:00,
2013-09-15 11:38:00,58.5,45.9,29.74,NNW,345,0.0,0.0,63,0.00,CLR,,0.00,WeatherDisplay:10.37,2013-09-15 19:38:00,
2013-09-15 11:43:00,58.6,46.5,29.74,NNW,345,0.0,0.0,64,0.00,CLR,,0.00,WeatherDisplay:10.37,2013-09-15 19:43:00,
2013-09-15 11:48:00,58.8,45.8,29.74,NNW,345,0.0,0.0,62,0.00,CLR,,0.00,WeatherDisplay:10.37,2013-09-15 19:48:00,
2013-09-15 11:53:00,59.0,45.6,29.74,NNW,343,0.0,0.0,61,0.00,CLR,,0.00,WeatherDisplay:10.37,2013-09-15 19:53:00,
2013-09-15 11:58:00,59.3,45.4,29.74,NNW,345,0.0,0.0,60,0.00,CLR,,0.00,WeatherDisplay:10.37,2013-09-15 19:58:00,
2013-09-15 12:03:00,59.5,45.2,29.74,NNW,344,1.1,1.1,59,0.00,CLR,,0.00,WeatherDisplay:10.37,2013-09-15 20:03:00,
2013-09-15 12:08:00,59.7,45.8,29.74,NNW,344,0.0,0.0,60,0.00,CLR,,0.00,WeatherDisplay:10.37,2013-09-15 20:08:00,
2013-09-15 12:13:00,59.9,45.5,29.73,NNW,344,0.0,0.0,59,0.00,CLR,,0.00,WeatherDisplay:10.37,2013-09-15 20:13:00,
2013-09-15 12:18:00,60.1,45.3,29.73,NNW,344,0.0,0.0,58,0.00,CLR,,0.00,WeatherDisplay:10.37,2013-09-15 20:18:00,
2013-09-15 12:23:00,60.3,45.5,29.73,NNW,343,0.0,0.0,58,0.00,CLR,,0.00,WeatherDisplay:10.37,2013-09-15 20:23:00,
2013-09-15 12:28:00,60.4,45.1,29.73,NNW,344,0.0,0.0,57,0.00,CLR,,0.00,WeatherDisplay:10.37,2013-09-15 20:28:00,
2013-09-15 12:33:00,60.5,45.2,29.73,NNW,346,0.0,0.0,57,0.00,CLR,,0.00,WeatherDisplay:10.37,2013-09-15 20:33:00,
2013-09-15 12:38:00,60.6,44.8,29.73,NNW,345,0.0,0.0,56,0.00,CLR,,0.00,WeatherDisplay:10.37,2013-09-15 20:38:00,
2013-09-15 12:43:00,60.7,44.9,29.73,NNW,345,0.0,0.0,56,0.00,CLR,,0.00,WeatherDisplay:10.37,2013-09-15 20:43:00,
2013-09-15 12:48:00,60.9,44.6,29.73,NNW,344,0.0,0.0,55,0.00,CLR,,0.00,WeatherDisplay:10.37,2013-09-15 20:48:00,
2013-09-15 12:53:00,60.9,44.6,29.73,NNW,344,0.0,0.0,55,0.00,CLR,,0.00,WeatherDisplay:10.37,2013-09-15 20:53:00,
2013-09-15 12:58:00,60.8,44.5,29.73,NNW,345,0.0,0.0,55,0.00,CLR,,0.00,WeatherDisplay:10.37,2013-09-15 20:58:00,
2013-09-15 13:03:00,60.6,44.8,29.73,NNW,345,0.0,0.0,56,0.00,CLR,,0.00,WeatherDisplay:10.37,2013-09-15 21:03:00,
2013-09-15 13:08:00,60.5,44.7,29.73,NNW,346,0.0,0.0,56,0.00,CLR,,0.00,WeatherDisplay:10.37,2013-09-15 21:08:00,
2013-09-15 13:13:00,60.6,44.8,29.73,NNW,346,0.0,0.0,56,0.00,CLR,,0.00,WeatherDisplay:10.37,2013-09-15 21:13:00,
2013-09-15 13:18:00,61.0,45.2,29.73,NNW,346,0.0,0.0,56,0.00,CLR,,0.00,WeatherDisplay:10.37,2013-09-15 21:18:00,
2013-09-15 13:23:00,60.9,44.6,29.73,NNW,345,0.0,0.0,55,0.00,CLR,,0.00,WeatherDisplay:10.37,2013-09-15 21:23:00,
2013-09-15 13:28:00,60.9,45.6,29.72,NNW,346,0.0,0.0,57,0.00,CLR,,0.00,WeatherDisplay:10.37,2013-09-15 21:28:00,
2013-09-15 13:33:00,61.1,45.7,29.72,NNW,346,0.0,0.0,57,0.00,CLR,,0.00,WeatherDisplay:10.37,2013-09-15 21:33:00,
2013-09-15 13:38:00,61.3,45.5,29.72,NNW,345,0.0,0.0,56,0.00,CLR,,0.00,WeatherDisplay:10.37,2013-09-15 21:38:00,
2013-09-15 13:43:00,61.5,45.2,29.72,NNW,345,0.0,0.0,55,0.00,CLR,,0.00,WeatherDisplay:10.37,2013-09-15 21:43:00,
2013-09-15 13:48:00,61.4,45.6,29.72,NNW,346,0.0,0.0,56,0.00,CLR,,0.00,WeatherDisplay:10.37,2013-09-15 21:48:00,
2013-09-15 13:53:00,61.1,44.8,29.72,NNW,345,0.0,0.0,55,0.00,CLR,,0.00,WeatherDisplay:10.37,2013-09-15 21:53:00,
2013-09-15 13:58:00,60.7,44.9,29.72,NNW,345,0.0,0.0,56,0.00,CLR,,0.00,WeatherDisplay:10.37,2013-09-15 21:58:00,
2013-09-15 14:03:00,60.7,45.8,29.72,NNW,346,0.0,0.0,58,0.00,CLR,,0.00,WeatherDisplay:10.37,2013-09-15 22:03:00,
2013-09-15 14:08:00,61.1,45.7,29.72,NNW,346,0.0,0.0,57,0.00,CLR,,0.00,WeatherDisplay:10.37,2013-09-15 22:08:00,
2013-09-15 14:13:00,61.6,45.3,29.72,NNW,345,0.0,0.0,55,0.00,CLR,,0.00,WeatherDisplay:10.37,2013-09-15 22:13:00,
2013-09-15 14:18:00,62.1,45.7,29.72,NNW,345,0.0,0.0,55,0.00,CLR,,0.00,WeatherDisplay:10.37,2013-09-15 22:18:00,
2013-09-15 14:23:00,62.6,45.7,29.71,NNW,345,0.0,0.0,54,0.00,CLR,,0.00,WeatherDisplay:10.37,2013-09-15 22:23:00,
2013-09-15 14:28:00,62.4,45.5,29.72,NNW,346,0.0,0.0,54,0.00,CLR,,0.00,WeatherDisplay:10.37,2013-09-15 22:28:00,
2013-09-15 14:33:00,62.4,45.5,29.72,NNW,345,0.0,0.0,54,0.00,CLR,,0.00,WeatherDisplay:10.37,2013-09-15 22:33:00,
2013-09-15 14:38:00,62.4,45.0,29.72,NNW,344,0.0,0.0,53,0.00,CLR,,0.00,WeatherDisplay:10.37,2013-09-15 22:38:00,
2013-09-15 14:43:00,62.5,46.1,29.72,NNW,345,0.0,0.0,55,0.00,CLR,,0.00,WeatherDisplay:10.37,2013-09-15 22:43:00,
2013-09-15 14:48:00,62.8,45.9,29.71,NNW,346,0.0,0.0,54,0.00,CLR,,0.00,WeatherDisplay:10.37,2013-09-15 22:48:00,
2013-09-15 14:53:00,62.8,45.4,29.71,NNW,344,0.0,0.0,53,0.00,CLR,,0.00,WeatherDisplay:10.37,2013-09-15 22:53:00,
2013-09-15 14:58:00,62.8,45.4,29.72,NNW,347,0.0,0.0,53,0.00,CLR,,0.00,WeatherDisplay:10.37,2013-09-15 22:58:00,
2013-09-15 15:03:00,62.9,46.0,29.72,NNW,346,0.0,0.0,54,0.00,CLR,,0.00,WeatherDisplay:10.37,2013-09-15 23:03:00,
2013-09-15 15:08:00,63.0,45.6,29.71,NNW,345,0.0,0.0,53,0.00,CLR,,0.00,WeatherDisplay:10.37,2013-09-15 23:08:00,
2013-09-15 15:13:00,63.0,46.1,29.72,NNW,346,0.0,0.0,54,0.00,CLR,,0.00,WeatherDisplay:10.37,2013-09-15 23:13:00,
2013-09-15 15:18:00,62.7,45.3,29.71,NNW,346,0.0,0.0,53,0.00,CLR,,0.00,WeatherDisplay:10.37,2013-09-15 23:18:00,
2013-09-15 15:23:00,62.4,45.5,29.71,NNW,345,0.0,0.0,54,0.00,CLR,,0.00,WeatherDisplay:10.37,2013-09-15 23:23:00,
2013-09-15 15:28:00,62.4,45.0,29.71,NNW,345,0.0,0.0,53,0.00,CLR,,0.00,WeatherDisplay:10.37,2013-09-15 23:28:00,
2013-09-15 15:33:00,62.5,45.1,29.72,NNW,344,0.0,0.0,53,0.00,CLR,,0.00,WeatherDisplay:10.37,2013-09-15 23:33:00,
2013-09-15 15:38:00,62.7,45.3,29.71,NNW,345,0.0,0.0,53,0.00,CLR,,0.00,WeatherDisplay:10.37,2013-09-15 23:38:00,
2013-09-15 15:43:00,62.7,45.3,29.70,NNW,345,0.0,0.0,53,0.00,CLR,,0.00,WeatherDisplay:10.37,2013-09-15 23:43:00,
2013-09-15 15:48:00,62.8,44.9,29.71,NNW,346,0.0,0.0,52,0.00,CLR,,0.00,WeatherDisplay:10.37,2013-09-15 23:48:00,
2013-09-15 15:53:00,62.8,44.9,29.71,NNW,344,0.0,0.0,52,0.00,CLR,,0.00,WeatherDisplay:10.37,2013-09-15 23:53:00,
2013-09-15 15:58:00,62.8,45.4,29.71,NNW,344,0.0,0.0,53,0.00,CLR,,0.00,WeatherDisplay:10.37,2013-09-15 23:58:00,
2013-09-15 16:03:00,63.0,45.6,29.70,NNW,344,0.0,0.0,53,0.00,CLR,,0.00,WeatherDisplay:10.37,2013-09-16 00:03:00,
2013-09-15 16:08:00,63.0,45.6,29.70,NNW,345,0.0,0.0,53,0.00,CLR,,0.00,WeatherDisplay:10.37,2013-09-16 00:08:00,
2013-09-15 16:13:00,63.2,45.8,29.70,NNW,345,0.0,0.0,53,0.00,CLR,,0.00,WeatherDisplay:10.37,2013-09-16 00:13:00,
2013-09-15 16:18:00,63.4,45.5,29.70,NNW,345,0.0,0.0,52,0.00,CLR,,0.00,WeatherDisplay:10.37,2013-09-16 00:18:00,
2013-09-15 16:23:00,63.2,45.8,29.70,NNW,345,0.0,0.0,53,0.00,CLR,,0.00,WeatherDisplay:10.37,2013-09-16 00:23:00,
2013-09-15 16:28:00,63.5,45.6,29.70,NNW,344,0.0,0.0,52,0.00,CLR,,0.00,WeatherDisplay:10.37,2013-09-16 00:28:00,
2013-09-15 16:33:00,63.5,45.6,29.70,NNW,345,0.0,0.0,52,0.00,CLR,,0.00,WeatherDisplay:10.37,2013-09-16 00:33:00,
2013-09-15 16:38:00,63.8,45.8,29.70,NNW,345,0.0,0.0,52,0.00,CLR,,0.00,WeatherDisplay:10.37,2013-09-16 00:38:00,
2013-09-15 16:43:00,63.5,45.6,29.69,NNW,345,0.0,0.0,52,0.00,CLR,,0.00,WeatherDisplay:10.37,2013-09-16 00:43:00,
2013-09-15 16:48:00,63.2,45.8,29.69,NNW,344,0.0,0.0,53,0.00,CLR,,0.00,WeatherDisplay:10.37,2013-09-16 00:48:00,
2013-09-15 16:53:00,63.4,46.0,29.69,NNW,345,0.0,0.0,53,0.00,CLR,,0.00,WeatherDisplay:10.37,2013-09-16 00:53:00,
2013-09-15 16:58:00,63.8,46.3,29.69,NNW,345,0.0,0.0,53,0.00,CLR,,0.00,WeatherDisplay:10.37,2013-09-16 00:58:00,
2013-09-15 17:03:00,63.9,46.9,29.69,NNW,344,0.0,0.0,54,0.00,CLR,,0.00,WeatherDisplay:10.37,2013-09-16 01:03:00,
2013-09-15 17:08:00,63.9,46.4,29.69,NNW,344,0.0,0.0,53,0.00,CLR,,0.00,WeatherDisplay:10.37,2013-09-16 01:08:00,
2013-09-15 17:13:00,64.2,47.2,29.69,NNW,344,0.0,0.0,54,0.00,CLR,,0.00,WeatherDisplay:10.37,2013-09-16 01:13:00,
2013-09-15 17:18:00,64.4,45.9,29.69,NNW,345,0.0,0.0,51,0.00,CLR,,0.00,WeatherDisplay:10.37,2013-09-16 01:18:00,
2013-09-15 17:23:00,63.7,45.7,29.69,NNW,345,0.0,0.0,52,0.00,CLR,,0.00,WeatherDisplay:10.37,2013-09-16 01:23:00,
2013-09-15 17:28:00,62.9,45.5,29.69,NNW,344,0.0,0.0,53,0.00,CLR,,0.00,WeatherDisplay:10.37,2013-09-16 01:28:00,
2013-09-15 17:33:00,62.8,45.4,29.69,NNW,345,0.0,0.0,53,0.00,CLR,,0.00,WeatherDisplay:10.37,2013-09-16 01:33:00,
2013-09-15 17:38:00,63.6,46.6,29.69,NNW,345,0.0,0.0,54,0.00,CLR,,0.00,WeatherDisplay:10.37,2013-09-16 01:38:00,
2013-09-15 17:43:00,63.8,46.3,29.69,NNW,345,0.0,0.0,53,0.00,CLR,,0.00,WeatherDisplay:10.37,2013-09-16 01:43:00,
2013-09-15 17:48:00,63.6,45.6,29.69,NNW,345,0.0,0.0,52,0.00,CLR,,0.00,WeatherDisplay:10.37,2013-09-16 01:48:00,
2013-09-15 17:53:00,63.4,45.5,29.69,NNW,345,0.0,0.0,52,0.00,CLR,,0.00,WeatherDisplay:10.37,2013-09-16 01:53:00,
2013-09-15 17:58:00,63.4,46.0,29.69,NNW,345,0.0,0.0,53,0.00,CLR,,0.00,WeatherDisplay:10.37,2013-09-16 01:58:00,
2013-09-15 18:03:00,63.1,45.7,29.68,NNW,345,0.0,0.0,53,0.00,CLR,,0.00,WeatherDisplay:10.37,2013-09-16 02:03:00,
2013-09-15 18:08:00,62.8,45.4,29.68,NNW,345,0.0,0.0,53,0.00,CLR,,0.00,WeatherDisplay:10.37,2013-09-16 02:08:00,
2013-09-15 18:13:00,62.6,44.7,29.68,NNW,345,0.0,0.0,52,0.00,CLR,,0.00,WeatherDisplay:10.37,2013-09-16 02:13:00,
2013-09-15 18:18:00,61.6,43.8,29.68,NNW,345,0.0,0.0,52,0.00,CLR,,0.00,WeatherDisplay:10.37,2013-09-16 02:18:00,
2013-09-15 18:23:00,60.7,43.9,29.68,NNW,345,0.0,0.0,54,0.00,CLR,,0.00,WeatherDisplay:10.37,2013-09-16 02:23:00,
2013-09-15 18:28:00,60.5,44.2,29.68,NNW,345,0.0,0.0,55,0.00,CLR,,0.00,WeatherDisplay:10.37,2013-09-16 02:28:00,
2013-09-15 18:33:00,60.5,43.8,29.68,NNW,345,0.0,0.0,54,0.00,CLR,,0.00,WeatherDisplay:10.37,2013-09-16 02:33:00,
2013-09-15 18:38:00,60.3,43.6,29.68,NNW,345,0.0,0.0,54,0.00,CLR,,0.00,WeatherDisplay:10.37,2013-09-16 02:38:00,
2013-09-15 18:43:00,60.3,43.6,29.68,NNW,345,0.0,0.0,54,0.00,CLR,,0.00,WeatherDisplay:10.37,2013-09-16 02:43:00,
2013-09-15 18:48:00,60.2,43.5,29.68,NNW,345,0.0,0.0,54,0.00,CLR,,0.00,WeatherDisplay:10.37,2013-09-16 02:48:00,
2013-09-15 18:53:00,60.1,42.9,29.68,NNW,344,1.1,0.0,53,0.00,CLR,,0.00,WeatherDisplay:10.37,2013-09-16 02:53:00,
2013-09-15 18:58:00,60.0,42.8,29.68,NNW,345,0.0,0.0,53,0.00,CLR,,0.00,WeatherDisplay:10.37,2013-09-16 02:58:00,
2013-09-15 19:03:00,60.0,43.3,29.68,NNW,345,0.0,0.0,54,0.00,CLR,,0.00,WeatherDisplay:10.37,2013-09-16 03:03:00,
2013-09-15 19:08:00,60.0,42.8,29.68,NNW,345,0.0,0.0,53,0.00,CLR,,0.00,WeatherDisplay:10.37,2013-09-16 03:08:00,
2013-09-15 19:13:00,60.0,43.3,29.68,NNW,346,0.0,0.0,54,0.00,CLR,,0.00,WeatherDisplay:10.37,2013-09-16 03:13:00,
2013-09-15 19:18:00,60.0,43.3,29.68,NNW,345,0.0,0.0,54,0.00,CLR,,0.00,WeatherDisplay:10.37,2013-09-16 03:18:00,
2013-09-15 19:23:00,60.0,42.8,29.67,NNW,345,0.0,0.0,53,0.00,CLR,,0.00,WeatherDisplay:10.37,2013-09-16 03:23:00,
2013-09-15 19:28:00,59.9,42.7,29.67,NNW,345,0.0,0.0,53,0.00,CLR,,0.00,WeatherDisplay:10.37,2013-09-16 03:28:00,
2013-09-15 19:33:00,59.7,42.5,29.67,NNW,346,0.0,0.0,53,0.00,CLR,,0.00,WeatherDisplay:10.37,2013-09-16 03:33:00,
2013-09-15 19:38:00,59.7,42.5,29.67,NNW,347,0.0,0.0,53,0.00,CLR,,0.00,WeatherDisplay:10.37,2013-09-16 03:38:00,
2013-09-15 19:43:00,59.6,42.4,29.68,NNW,346,0.0,0.0,53,0.00,CLR,,0.00,WeatherDisplay:10.37,2013-09-16 03:43:00,
2013-09-15 19:48:00,59.4,42.7,29.67,NNW,345,0.0,0.0,54,0.00,CLR,,0.00,WeatherDisplay:10.37,2013-09-16 03:48:00,
2013-09-15 19:53:00,59.1,42.5,29.68,NNW,345,0.0,0.0,54,0.00,CLR,,0.00,WeatherDisplay:10.37,2013-09-16 03:53:00,
2013-09-15 19:58:00,59.0,42.4,29.68,NNW,345,0.0,0.0,54,0.00,CLR,,0.00,WeatherDisplay:10.37,2013-09-16 03:58:00,
2013-09-15 20:01:00,59.0,41.9,29.68,NNW,345,0.0,0.0,53,0.00,CLR,,0.00,WeatherDisplay:10.37,2013-09-16 04:01:00,
2013-09-15 20:06:00,59.3,42.6,29.68,NNW,345,0.0,0.0,54,0.00,CLR,,0.00,WeatherDisplay:10.37,2013-09-16 04:06:00,
2013-09-15 20:11:00,59.4,42.3,29.67,NNW,344,0.0,0.0,53,0.00,CLR,,0.00,WeatherDisplay:10.37,2013-09-16 04:11:00,
2013-09-15 20:16:00,59.4,42.3,29.67,NNW,345,0.0,0.0,53,0.00,CLR,,0.00,WeatherDisplay:10.37,2013-09-16 04:16:00,
2013-09-15 20:21:00,59.3,42.2,29.67,NNW,345,0.0,0.0,53,0.00,CLR,,0.00,WeatherDisplay:10.37,2013-09-16 04:21:00,
2013-09-15 20:26:00,59.4,42.3,29.67,NNW,345,0.0,0.0,53,0.00,CLR,,0.00,WeatherDisplay:10.37,2013-09-16 04:26:00,
2013-09-15 20:31:00,59.5,42.3,29.67,NNW,345,0.0,0.0,53,0.00,CLR,,0.00,WeatherDisplay:10.37,2013-09-16 04:31:00,
2013-09-15 20:36:00,59.5,42.3,29.67,NNW,344,0.0,0.0,53,0.00,CLR,,0.00,WeatherDisplay:10.37,2013-09-16 04:36:00,
2013-09-15 20:41:00,59.3,42.2,29.67,NNW,345,0.0,0.0,53,0.00,CLR,,0.00,WeatherDisplay:10.37,2013-09-16 04:41:00,
2013-09-15 20:46:00,59.3,41.7,29.67,NNW,344,0.0,0.0,52,0.00,CLR,,0.00,WeatherDisplay:10.37,2013-09-16 04:46:00,
2013-09-15 20:51:00,59.2,41.6,29.68,NNW,344,0.0,0.0,52,0.00,CLR,,0.00,WeatherDisplay:10.37,2013-09-16 04:51:00,
2013-09-15 20:56:00,59.0,41.9,29.67,NNW,344,0.0,0.0,53,0.00,CLR,,0.00,WeatherDisplay:10.37,2013-09-16 04:56:00,
2013-09-15 21:01:00,59.0,41.9,29.68,NNW,345,0.0,0.0,53,0.00,CLR,,0.00,WeatherDisplay:10.37,2013-09-16 05:01:00,
2013-09-15 21:06:00,59.0,41.9,29.68,NNW,345,0.0,0.0,53,0.00,CLR,,0.00,WeatherDisplay:10.37,2013-09-16 05:06:00,
2013-09-15 21:11:00,59.0,41.9,29.68,NNW,346,0.0,0.0,53,0.00,CLR,,0.00,WeatherDisplay:10.37,2013-09-16 05:11:00,
2013-09-15 21:16:00,59.0,41.4,29.67,NNW,346,0.0,0.0,52,0.00,CLR,,0.00,WeatherDisplay:10.37,2013-09-16 05:16:00,
2013-09-15 21:21:00,59.0,41.9,29.68,NNW,345,0.0,0.0,53,0.00,CLR,,0.00,WeatherDisplay:10.37,2013-09-16 05:21:00,
2013-09-15 21:26:00,58.3,42.2,29.68,NNW,345,0.0,0.0,55,0.00,CLR,,0.00,WeatherDisplay:10.37,2013-09-16 05:26:00,
2013-09-15 21:31:00,58.0,41.9,29.68,NNW,345,0.0,0.0,55,0.00,CLR,,0.00,WeatherDisplay:10.37,2013-09-16 05:31:00,
2013-09-15 21:36:00,57.7,42.1,29.67,NNW,346,0.0,0.0,56,0.00,CLR,,0.00,WeatherDisplay:10.37,2013-09-16 05:36:00,
2013-09-15 21:41:00,57.3,42.2,29.67,NNW,346,0.0,0.0,57,0.00,CLR,,0.00,WeatherDisplay:10.37,2013-09-16 05:41:00,
2013-09-15 21:46:00,56.9,41.8,29.67,NNW,347,0.0,0.0,57,0.00,CLR,,0.00,WeatherDisplay:10.37,2013-09-16 05:46:00,
2013-09-15 21:51:00,56.4,42.7,29.67,NNW,347,0.0,0.0,60,0.00,CLR,,0.00,WeatherDisplay:10.37,2013-09-16 05:51:00,
2013-09-15 21:56:00,55.7,42.9,29.67,NNW,347,0.0,0.0,62,0.00,CLR,,0.00,WeatherDisplay:10.37,2013-09-16 05:56:00,
2013-09-15 22:01:00,54.7,42.3,29.67,NNW,345,0.0,0.0,63,0.00,CLR,,0.00,WeatherDisplay:10.37,2013-09-16 06:01:00,
2013-09-15 22:06:00,54.1,41.8,29.67,NNW,346,0.0,0.0,63,0.00,CLR,,0.00,WeatherDisplay:10.37,2013-09-16 06:06:00,
2013-09-15 22:11:00,54.3,42.4,29.66,NNW,347,0.0,0.0,64,0.00,CLR,,0.00,WeatherDisplay:10.37,2013-09-16 06:11:00,
2013-09-15 22:16:00,54.3,42.4,29.66,NNW,347,0.0,0.0,64,0.00,CLR,,0.00,WeatherDisplay:10.37,2013-09-16 06:16:00,
2013-09-15 22:21:00,53.7,42.2,29.66,NNW,347,0.0,0.0,65,0.00,CLR,,0.00,WeatherDisplay:10.37,2013-09-16 06:21:00,
2013-09-15 22:26:00,53.5,42.4,29.66,NNW,347,0.0,0.0,66,0.00,CLR,,0.00,WeatherDisplay:10.37,2013-09-16 06:26:00,
2013-09-15 22:31:00,53.2,42.1,29.66,NNW,347,0.0,0.0,66,0.00,CLR,,0.00,WeatherDisplay:10.37,2013-09-16 06:31:00,
2013-09-15 22:36:00,52.9,42.2,29.66,NNW,347,0.0,0.0,67,0.00,CLR,,0.00,WeatherDisplay:10.37,2013-09-16 06:36:00,
2013-09-15 22:41:00,52.7,42.0,29.66,NNW,347,0.0,0.0,67,0.00,CLR,,0.00,WeatherDisplay:10.37,2013-09-16 06:41:00,
2013-09-15 22:46:00,53.3,41.0,29.66,NNW,347,0.0,0.0,63,0.00,CLR,,0.00,WeatherDisplay:10.37,2013-09-16 06:46:00,
2013-09-15 22:51:00,53.8,41.1,29.66,NNW,347,0.0,0.0,62,0.00,CLR,,0.00,WeatherDisplay:10.37,2013-09-16 06:51:00,
2013-09-15 22:56:00,54.9,40.4,29.65,NNW,346,0.0,0.0,58,0.00,CLR,,0.00,WeatherDisplay:10.37,2013-09-16 06:56:00,
2013-09-15 23:01:00,56.6,40.1,29.66,NNW,346,0.0,0.0,54,0.00,CLR,,0.00,WeatherDisplay:10.37,2013-09-16 07:01:00,
2013-09-15 23:06:00,57.2,40.7,29.66,NNW,346,0.0,0.0,54,0.00,CLR,,0.00,WeatherDisplay:10.37,2013-09-16 07:06:00,
2013-09-15 23:11:00,57.1,40.6,29.65,NNW,346,0.0,0.0,54,0.00,CLR,,0.00,WeatherDisplay:10.37,2013-09-16 07:11:00,
2013-09-15 23:16:00,55.9,42.2,29.66,NNW,345,0.0,0.0,60,0.00,CLR,,0.00,WeatherDisplay:10.37,2013-09-16 07:16:00,
2013-09-15 23:21:00,54.3,42.0,29.66,NNW,346,0.0,0.0,63,0.00,CLR,,0.00,WeatherDisplay:10.37,2013-09-16 07:21:00,
2013-09-15 23:26:00,52.9,41.4,29.66,NNW,346,0.0,0.0,65,0.00,CLR,,0.00,WeatherDisplay:10.37,2013-09-16 07:26:00,
2013-09-15 23:31:00,52.1,41.9,29.65,NNW,345,0.0,0.0,68,0.00,CLR,,0.00,WeatherDisplay:10.37,2013-09-16 07:31:00,
2013-09-15 23:36:00,51.5,41.3,29.65,NNW,345,0.0,0.0,68,0.00,CLR,,0.00,WeatherDisplay:10.37,2013-09-16 07:36:00,
2013-09-15 23:41:00,51.2,41.4,29.65,NNW,346,0.0,0.0,69,0.00,CLR,,0.00,WeatherDisplay:10.37,2013-09-16 07:41:00,
2013-09-15 23:46:00,50.9,41.5,29.65,NNW,346,0.0,0.0,70,0.00,CLR,,0.00,WeatherDisplay:10.37,2013-09-16 07:46:00,
2013-09-15 23:51:00,51.0,41.2,29.65,NNW,346,0.0,0.0,69,0.00,CLR,,0.00,WeatherDisplay:10.37,2013-09-16 07:51:00,
2013-09-15 23:56:00,51.4,40.4,29.65,NNW,346,0.0,0.0,66,0.00,CLR,,0.00,WeatherDisplay:10.37,2013-09-16 07:56:00,